Tomah, WI

6:05 AM CST on February 11, 2016 (GMT -0600)
Downtown Warrens | | Change Station
CLOSE
Current Station
Personal Weather Station
Location: Warrens, WI
Elevation: 1020 ft
Nearby Weather Stations

Elev 1020 ft 44.13 °N, 90.50 °W | Updated 21 seconds ago

Partly Cloudy
Partly Cloudy
-8.0 °F
Feels Like -8 °F
N
0.9
Wind Variable Wind from NW
Gusts 2.5 mph

Today
High -- | Low -- °F
--% Chance of Precip.
Yesterday
High -- | Low -- °F
Precip. -- in
Pressure 30.36 in
Visibility 10.0 miles
Clouds Clear
Windchill -8 °F
Dew Point -22 °F
Humidity 50%
Rainfall 0.00 in
Snow Depth Not available.
7:07 AM 5:25 PM
Waxing Crescent, 11% visible
METAR KVOK 111158Z 27004KT 10SM CLR M22/M23 A3027 RMK AO2A SLP279 52007
Pressure 30.36 in
Visibility 10.0 miles
Clouds Clear
Windchill -8 °F
Dew Point -22 °F
Humidity 50%
Rainfall 0.00 in
Snow Depth Not available.
7:07 AM 5:25 PM
Waxing Crescent, 11% visible
METAR KVOK 111158Z 27004KT 10SM CLR M22/M23 A3027 RMK AO2A SLP279 52007

10-Day Weather Forecast

Almanac

Astronomy

Feb. 11, 2016 Rise Set
Actual Time
Civil Twilight
Nautical Twilight
Astronomical Twilight
Moon
Length of Visible Light
Length of Day
Tomorrow will be .
, % of the Moon is Illuminated

Today's Extremes

State Highs State Lows

Community

WunderPhotos

Upload Photos

1,892,035 photos uploaded!

WunderBlog® & News

Nearby

Air Quality

  Air Quality AQ Index Pollutant
Not available.

Snow Depth

Station Depth Elevation

Earthquake Activity

City Distance Mag. Time & Date
Minimum magnitude displayed is 2.5.

Coastal Water Temperatures

Place Temperature

Stations

Nearby Weather Stations

Station Location Temp. Windchill Dew Point Humidity Wind Precip. Elev Updated Type
                   

Watches & Warnings

There are currently no watches in effect.